createdAt,value
2023-02-01T00:01:26.817Z,1.48
2023-02-01T00:03:54.254Z,1.20
2023-02-01T00:06:21.411Z,1.10
2023-02-01T00:08:48.552Z,1.33
2023-02-01T00:11:15.944Z,1.05
2023-02-01T00:13:43.332Z,1.30
2023-02-01T00:16:13.525Z,1.37
2023-02-01T00:18:41.394Z,1.55
2023-02-01T00:21:08.556Z,1.25
2023-02-01T00:23:36.941Z,1.50
2023-02-01T00:26:06.131Z,1.65
2023-02-01T00:28:33.728Z,1.15
2023-02-01T00:31:02.503Z,1.50
2023-02-01T00:33:30.665Z,2.05
2023-02-01T00:36:08.451Z,1.40
2023-02-01T00:38:38.280Z,1.27
2023-02-01T00:41:17.557Z,1.30
2023-02-01T00:43:45.776Z,1.40
2023-02-01T00:46:14.076Z,1.20
2023-02-01T00:48:41.779Z,1.02
2023-02-01T00:51:12.469Z,0.90
2023-02-01T00:53:40.980Z,1.08
2023-02-01T00:56:09.483Z,1.05
2023-02-01T00:58:36.608Z,1.15
2023-02-01T01:01:21.866Z,1.05
2023-02-01T01:03:52.073Z,1.02
2023-02-01T01:06:25.754Z,1.02
2023-02-01T01:08:57.035Z,0.93
2023-02-01T01:11:26.947Z,1.10
2023-02-01T01:13:58.237Z,0.60
2023-02-01T01:16:28.743Z,1.20
2023-02-01T01:18:56.760Z,1.10
2023-02-01T01:21:24.374Z,1.30
2023-02-01T01:23:51.615Z,0.98
2023-02-01T01:26:22.130Z,1.45
2023-02-01T01:28:49.501Z,0.90
2023-02-01T01:31:18.523Z,1.05
2023-02-01T01:33:49.825Z,1.17
2023-02-01T01:36:17.305Z,0.93
2023-02-01T01:38:44.700Z,1.02
2023-02-01T01:41:18.171Z,0.80
2023-02-01T01:44:06.470Z,1.02
2023-02-01T01:46:41.953Z,0.90
2023-02-01T01:49:12.992Z,1.02
2023-02-01T01:51:43.852Z,1.00
2023-02-01T01:54:17.170Z,0.95
2023-02-01T01:56:49.604Z,1.35
2023-02-01T01:59:16.978Z,0.80
2023-02-01T02:01:44.917Z,0.88
2023-02-01T02:04:12.396Z,1.00
2023-02-01T02:07:02.664Z,1.08
2023-02-01T02:09:29.983Z,0.98
2023-02-01T02:11:57.710Z,1.40
2023-02-01T02:14:26.974Z,1.25
2023-02-01T02:17:00.928Z,1.30
2023-02-01T02:22:20.853Z,0.93
2023-02-01T02:25:18.986Z,1.25
2023-02-01T02:28:20.081Z,1.30
2023-02-01T02:31:14.267Z,1.10
2023-02-01T02:34:10.217Z,1.35
2023-02-01T02:36:56.488Z,1.33
2023-02-01T02:39:29.612Z,1.17
2023-02-01T02:42:49.760Z,1.20
2023-02-01T02:46:01.692Z,1.23
2023-02-01T02:48:43.086Z,1.48
2023-02-01T02:51:41.759Z,1.35
2023-02-01T02:54:34.401Z,1.00
2023-02-01T02:57:22.956Z,1.80
2023-02-01T03:00:09.528Z,1.48
2023-02-01T03:02:54.906Z,1.70
2023-02-01T03:05:22.362Z,1.20
2023-02-01T03:08:16.410Z,1.65
2023-02-01T03:10:49.777Z,1.57
2023-02-01T03:13:16.906Z,1.58
2023-02-01T03:16:16.657Z,1.65
2023-02-01T03:19:05.065Z,1.50
2023-02-01T03:21:45.537Z,1.35
2023-02-01T03:24:17.072Z,1.55
2023-02-01T03:26:56.640Z,1.27
2023-02-01T03:29:31.142Z,1.48
2023-02-01T03:31:58.583Z,1.45
2023-02-01T03:34:25.742Z,1.25
2023-02-01T03:36:59.714Z,1.30
2023-02-01T03:42:00.386Z,1.30
2023-02-01T03:44:32.779Z,1.70
2023-02-01T03:47:09.590Z,1.15
2023-02-01T03:49:50.315Z,1.35
2023-02-01T03:52:21.550Z,1.27
2023-02-01T03:54:50.182Z,1.40
2023-02-01T03:57:21.749Z,1.37
2023-02-01T03:59:49.193Z,1.42
2023-02-01T04:02:16.513Z,1.55
2023-02-01T04:04:44.105Z,1.33
2023-02-01T04:07:11.841Z,1.37
2023-02-01T04:09:38.948Z,1.58
2023-02-01T04:12:06.581Z,1.23
2023-02-01T04:14:34.043Z,1.40
2023-02-01T04:17:01.583Z,1.10
2023-02-01T04:19:28.996Z,1.10
2023-02-01T04:21:56.103Z,1.02
2023-02-01T04:24:23.458Z,1.73
2023-02-01T04:26:50.925Z,1.40
2023-02-01T04:29:18.158Z,1.87
2023-02-01T04:31:45.314Z,1.60
2023-02-01T04:34:12.819Z,1.48
2023-02-01T04:36:39.901Z,1.55
2023-02-01T04:39:07.266Z,1.35
2023-02-01T04:41:34.658Z,1.87
2023-02-01T04:44:01.740Z,1.95
2023-02-01T04:46:29.189Z,1.77
2023-02-01T04:48:56.569Z,1.58
2023-02-01T04:51:23.959Z,1.37
2023-02-01T04:53:51.058Z,1.58
2023-02-01T04:56:18.462Z,1.62
2023-02-01T04:58:45.551Z,1.20
2023-02-01T05:01:12.701Z,2.00
2023-02-01T05:03:40.255Z,1.70
2023-02-01T05:06:07.396Z,1.50
2023-02-01T05:08:36.645Z,1.40
2023-02-01T05:11:05.461Z,1.67
2023-02-01T05:13:50.756Z,1.95
2023-02-01T05:16:18.396Z,1.62
2023-02-01T05:18:45.698Z,2.22
2023-02-01T05:21:13.731Z,1.45
2023-02-01T05:23:59.723Z,1.83
2023-02-01T05:26:26.887Z,1.80
2023-02-01T05:28:54.264Z,1.67
2023-02-01T05:31:22.063Z,1.17
2023-02-01T05:33:49.249Z,1.50
2023-02-01T05:36:16.764Z,1.30
2023-02-01T05:38:44.000Z,1.87
2023-02-01T05:41:11.123Z,1.27
2023-02-01T05:43:38.878Z,1.73
2023-02-01T05:46:05.989Z,1.50
2023-02-01T05:48:33.119Z,1.30
2023-02-01T05:51:00.484Z,1.65
2023-02-01T05:53:27.574Z,1.77
2023-02-01T05:55:54.659Z,2.25
2023-02-01T05:58:22.052Z,2.22
2023-02-01T06:00:49.202Z,1.70
2023-02-01T06:03:16.575Z,1.80
2023-02-01T06:05:47.844Z,1.67
2023-02-01T06:08:15.390Z,2.03
2023-02-01T06:10:42.803Z,2.35
2023-02-01T06:13:10.077Z,1.70
2023-02-01T06:15:38.483Z,1.98
2023-02-01T06:18:05.940Z,1.80
2023-02-01T06:20:32.998Z,2.20
2023-02-01T06:23:00.120Z,1.80
2023-02-01T06:25:27.519Z,2.28
2023-02-01T06:27:54.624Z,2.05
2023-02-01T06:30:22.360Z,1.85
2023-02-01T06:32:54.657Z,2.72
2023-02-01T06:35:21.813Z,1.77
2023-02-01T06:37:48.914Z,1.77
2023-02-01T06:40:16.348Z,1.60
2023-02-01T06:42:43.463Z,1.95
2023-02-01T06:45:10.866Z,1.98
2023-02-01T06:47:38.404Z,1.85
2023-02-01T06:50:06.383Z,2.45
2023-02-01T06:52:33.947Z,2.25
2023-02-01T06:55:01.537Z,1.98
2023-02-01T06:57:31.488Z,1.90
2023-02-01T06:59:59.526Z,2.20
2023-02-01T07:02:26.976Z,2.30
2023-02-01T07:04:54.098Z,2.03
2023-02-01T07:07:23.453Z,1.62
2023-02-01T07:09:51.176Z,2.03
2023-02-01T07:12:19.445Z,2.47
2023-02-01T07:14:46.502Z,2.05
2023-02-01T07:17:14.230Z,2.08
2023-02-01T07:19:41.385Z,2.87
2023-02-01T07:22:08.463Z,2.20
2023-02-01T07:24:35.828Z,2.50
2023-02-01T07:27:02.949Z,2.40
2023-02-01T07:29:30.054Z,2.50
2023-02-01T07:31:57.629Z,1.95
2023-02-01T07:34:25.229Z,1.80
2023-02-01T07:36:52.359Z,2.10
2023-02-01T07:39:19.721Z,2.15
2023-02-01T07:41:47.296Z,2.15
2023-02-01T07:44:14.427Z,2.35
2023-02-01T07:46:41.891Z,2.60
2023-02-01T07:49:08.973Z,3.03
2023-02-01T07:51:36.069Z,2.17
2023-02-01T07:54:03.395Z,2.22
2023-02-01T07:56:30.437Z,1.92
2023-02-01T07:58:57.925Z,2.47
2023-02-01T08:01:26.831Z,2.70
2023-02-01T08:04:02.937Z,2.30
2023-02-01T08:06:33.362Z,1.77
2023-02-01T08:09:03.534Z,2.22
2023-02-01T08:11:30.829Z,2.60
2023-02-01T08:13:59.009Z,2.85
2023-02-01T08:16:26.556Z,2.90
2023-02-01T08:18:55.139Z,2.20
2023-02-01T08:21:24.812Z,2.40
2023-02-01T08:23:52.473Z,2.40
2023-02-01T08:26:24.922Z,2.55
2023-02-01T08:28:55.674Z,1.80
2023-02-01T08:31:24.906Z,2.08
2023-02-01T08:33:55.109Z,1.52
2023-02-01T08:36:22.741Z,1.83
2023-02-01T08:38:49.731Z,2.05
2023-02-01T08:41:19.801Z,1.90
2023-02-01T08:43:48.860Z,1.73
2023-02-01T08:46:17.504Z,1.73
2023-02-01T08:48:44.575Z,2.25
2023-02-01T08:51:13.282Z,2.22
2023-02-01T08:53:42.608Z,1.50
2023-02-01T08:56:11.529Z,1.65
2023-02-01T08:58:38.913Z,1.65
2023-02-01T09:01:11.803Z,1.87
2023-02-01T09:03:39.164Z,1.90
2023-02-01T09:06:08.926Z,1.85
2023-02-01T09:08:36.556Z,1.70
2023-02-01T09:11:08.071Z,1.65
2023-02-01T09:13:36.391Z,1.52
2023-02-01T09:16:04.706Z,1.67
2023-02-01T09:18:32.152Z,1.62
2023-02-01T09:20:59.579Z,1.83
2023-02-01T09:23:26.654Z,1.70
2023-02-01T09:25:53.763Z,1.80
2023-02-01T09:28:21.150Z,1.98
2023-02-01T09:30:48.387Z,1.95
2023-02-01T09:33:15.694Z,1.98
2023-02-01T09:35:43.095Z,2.35
2023-02-01T09:38:10.113Z,2.05
2023-02-01T09:40:37.187Z,1.70
2023-02-01T09:43:52.445Z,1.80
2023-02-01T09:46:29.248Z,2.20
2023-02-01T09:48:59.560Z,2.17
2023-02-01T09:51:31.086Z,2.33
2023-02-01T09:53:58.365Z,2.45
2023-02-01T09:56:30.264Z,2.15
2023-02-01T09:59:09.598Z,2.20
2023-02-01T10:01:38.260Z,2.83
2023-02-01T10:04:09.467Z,2.42
2023-02-01T10:07:02.950Z,2.58
2023-02-01T10:09:34.029Z,2.50
2023-02-01T10:12:32.167Z,2.25
2023-02-01T10:15:31.911Z,3.15
2023-02-01T10:18:16.057Z,2.30
2023-02-01T10:23:40.511Z,2.87
2023-02-01T10:26:24.551Z,2.60
2023-02-01T10:28:54.153Z,2.58
2023-02-01T10:31:26.239Z,2.67
2023-02-01T10:34:01.106Z,2.70
2023-02-01T10:36:53.771Z,2.80
2023-02-01T10:39:21.425Z,2.72
2023-02-01T10:41:49.149Z,2.42
2023-02-01T10:44:19.328Z,2.67
2023-02-01T10:46:46.600Z,3.17
2023-02-01T10:49:20.538Z,2.87
2023-02-01T10:51:55.877Z,3.05
2023-02-01T10:54:34.761Z,2.75
2023-02-01T10:57:02.005Z,3.25
2023-02-01T10:59:34.386Z,3.22
2023-02-01T11:02:19.614Z,2.85
2023-02-01T11:04:47.170Z,2.67
2023-02-01T11:07:20.633Z,3.15
2023-02-01T11:09:56.201Z,3.25
2023-02-01T11:12:33.572Z,2.47
2023-02-01T11:15:03.424Z,2.60
2023-02-01T11:17:37.168Z,2.70
2023-02-01T11:20:10.357Z,2.40
2023-02-01T11:22:37.407Z,2.47
2023-02-01T11:25:10.668Z,2.12
2023-02-01T11:27:49.493Z,2.05
2023-02-01T11:30:33.971Z,2.35
2023-02-01T11:33:01.803Z,2.05
2023-02-01T11:35:30.083Z,2.30
2023-02-01T11:38:02.486Z,2.20
2023-02-01T11:40:36.341Z,2.58
2023-02-01T11:43:16.610Z,2.30
2023-02-01T11:45:57.021Z,1.90
2023-02-01T11:48:27.300Z,2.10
2023-02-01T11:50:57.481Z,2.00
2023-02-01T11:53:42.915Z,2.00
2023-02-01T11:56:20.012Z,1.98
2023-02-01T11:59:19.259Z,1.83
2023-02-01T12:01:52.628Z,1.90
2023-02-01T12:04:32.341Z,2.22
2023-02-01T12:07:11.797Z,1.55
2023-02-01T12:09:43.425Z,2.35
2023-02-01T12:12:25.668Z,1.75
2023-02-01T12:15:14.754Z,2.05
2023-02-01T12:18:09.731Z,1.92
2023-02-01T12:21:07.940Z,2.37
2023-02-01T12:23:37.786Z,2.42
2023-02-01T12:26:26.874Z,2.08
2023-02-01T12:29:26.072Z,2.33
2023-02-01T12:32:08.148Z,1.80
2023-02-01T12:34:43.922Z,2.22
2023-02-01T12:37:33.130Z,1.90
2023-02-01T12:40:07.228Z,1.37
2023-02-01T12:43:07.130Z,1.65
2023-02-01T12:45:40.907Z,1.25
2023-02-01T12:48:20.427Z,2.08
2023-02-01T12:50:54.442Z,1.98
2023-02-01T12:53:32.073Z,2.00
2023-02-01T12:56:12.314Z,1.85
2023-02-01T12:58:42.563Z,2.00
2023-02-01T13:01:22.146Z,2.00
2023-02-01T13:03:55.537Z,2.15
2023-02-01T13:06:27.650Z,1.92
2023-02-01T13:09:04.595Z,2.03
2023-02-01T13:11:39.699Z,2.22
2023-02-01T13:14:28.767Z,2.10
2023-02-01T13:17:26.385Z,2.37
2023-02-01T13:20:00.107Z,2.10
2023-02-01T13:22:34.323Z,2.20
2023-02-01T13:25:05.132Z,2.00
2023-02-01T13:27:33.119Z,2.12
2023-02-01T13:30:09.619Z,2.10
2023-02-01T13:33:50.546Z,2.00
2023-02-01T13:35:41.165Z,2.12
2023-02-01T13:38:39.353Z,2.17
2023-02-01T13:41:06.508Z,2.80
2023-02-01T13:43:34.184Z,1.95
2023-02-01T13:46:06.916Z,1.87
2023-02-01T13:48:39.484Z,2.17
2023-02-01T13:51:07.001Z,1.75
2023-02-01T13:53:38.613Z,1.90
2023-02-01T13:56:14.249Z,2.17
2023-02-01T13:58:43.861Z,1.62
2023-02-01T14:01:23.338Z,1.95
2023-02-01T14:03:56.010Z,1.60
2023-02-01T14:06:29.126Z,1.45
2023-02-01T14:09:33.468Z,1.40
2023-02-01T14:12:38.826Z,1.33
2023-02-01T14:15:28.029Z,1.50
2023-02-01T14:17:56.001Z,1.00
2023-02-01T14:20:46.403Z,1.45
2023-02-01T14:23:19.531Z,1.25
2023-02-01T14:26:04.522Z,1.20
2023-02-01T14:28:31.878Z,1.75
2023-02-01T14:31:00.568Z,1.02
2023-02-01T14:33:29.147Z,1.95
2023-02-01T14:36:06.148Z,1.70
2023-02-01T14:38:35.617Z,1.40
2023-02-01T14:41:32.097Z,1.15
2023-02-01T14:44:02.626Z,1.90
2023-02-01T14:47:07.534Z,1.30
2023-02-01T14:49:51.174Z,1.10
2023-02-01T14:52:20.494Z,1.42
2023-02-01T14:54:52.827Z,1.40
2023-02-01T14:57:21.857Z,1.23
2023-02-01T14:59:50.533Z,1.37
2023-02-01T15:02:26.409Z,1.17
2023-02-01T15:04:56.787Z,1.42
2023-02-01T15:07:28.243Z,1.10
2023-02-01T15:09:58.038Z,1.37
2023-02-01T15:12:28.688Z,1.17
2023-02-01T15:15:22.209Z,1.23
2023-02-01T15:18:01.083Z,1.20
2023-02-01T15:20:34.052Z,1.25
2023-02-01T15:23:02.105Z,1.48
2023-02-01T15:25:32.057Z,1.10
2023-02-01T15:27:59.411Z,1.33
2023-02-01T15:30:28.937Z,1.35
2023-02-01T15:33:29.441Z,1.45
2023-02-01T15:36:08.986Z,1.33
2023-02-01T15:38:41.834Z,1.40
2023-02-01T15:41:19.889Z,1.35
2023-02-01T15:43:56.274Z,1.27
2023-02-01T15:46:31.240Z,1.00
2023-02-01T15:48:58.913Z,1.40
2023-02-01T15:51:28.973Z,1.30
2023-02-01T15:53:59.926Z,1.55
2023-02-01T15:56:35.346Z,1.23
2023-02-01T15:59:04.597Z,1.67
2023-02-01T16:01:38.265Z,1.45
2023-02-01T16:04:13.611Z,1.85
2023-02-01T16:06:56.237Z,1.40
2023-02-01T16:09:26.118Z,1.00
2023-02-01T16:12:01.062Z,1.55
2023-02-01T16:14:28.710Z,2.25
2023-02-01T16:16:57.917Z,2.03
2023-02-01T16:19:28.914Z,1.58
2023-02-01T16:21:57.148Z,1.80
2023-02-01T16:24:26.834Z,1.90
2023-02-01T16:26:54.045Z,1.50
2023-02-01T16:29:22.634Z,2.08
2023-02-01T16:31:50.007Z,2.10
2023-02-01T16:34:20.648Z,2.00
2023-02-01T16:36:52.821Z,2.35
2023-02-01T16:39:23.052Z,1.80
2023-02-01T16:41:51.318Z,2.30
2023-02-01T16:44:19.431Z,2.40
2023-02-01T16:46:48.125Z,2.55
2023-02-01T16:49:25.759Z,1.98
2023-02-01T16:51:57.843Z,2.42
2023-02-01T16:54:25.252Z,2.37
2023-02-01T16:56:53.105Z,2.10
2023-02-01T16:59:20.199Z,2.53
2023-02-01T17:01:47.553Z,2.62
2023-02-01T17:04:14.715Z,1.60
2023-02-01T17:06:42.657Z,2.25
2023-02-01T17:09:10.594Z,2.45
2023-02-01T17:11:38.739Z,2.33
2023-02-01T17:14:18.236Z,2.50
2023-02-01T17:16:47.165Z,2.58
2023-02-01T17:19:18.127Z,2.60
2023-02-01T17:21:49.774Z,2.78
2023-02-01T17:24:18.873Z,2.75
2023-02-01T17:26:46.968Z,2.28
2023-02-01T17:29:14.241Z,2.22
2023-02-01T17:31:45.015Z,1.95
2023-02-01T17:34:15.581Z,2.37
2023-02-01T17:36:43.600Z,1.65
2023-02-01T17:39:11.164Z,2.35
2023-02-01T17:41:38.573Z,2.42
2023-02-01T17:44:05.822Z,1.55
2023-02-01T17:46:33.206Z,1.85
2023-02-01T17:49:01.480Z,1.65
2023-02-01T17:51:29.388Z,1.62
2023-02-01T17:53:56.597Z,1.62
2023-02-01T17:56:25.686Z,1.40
2023-02-01T17:58:52.801Z,2.45
2023-02-01T18:01:22.096Z,2.35
2023-02-01T18:03:49.798Z,1.70
2023-02-01T18:06:19.502Z,1.65
2023-02-01T18:08:46.835Z,1.77
2023-02-01T18:11:17.702Z,1.27
2023-02-01T18:13:44.747Z,1.42
2023-02-01T18:16:22.199Z,1.20
2023-02-01T18:18:49.941Z,1.30
2023-02-01T18:21:18.748Z,1.60
2023-02-01T18:23:46.066Z,1.55
2023-02-01T18:26:15.514Z,0.98
2023-02-01T18:28:43.011Z,1.10
2023-02-01T18:31:31.610Z,1.20
2023-02-01T18:34:00.226Z,1.50
2023-02-01T18:36:28.653Z,1.33
2023-02-01T18:38:57.623Z,1.05
2023-02-01T18:41:25.499Z,1.15
2023-02-01T18:43:52.921Z,1.55
2023-02-01T18:46:21.949Z,1.30
2023-02-01T18:48:50.379Z,1.05
2023-02-01T18:51:20.216Z,1.35
2023-02-01T18:53:48.354Z,1.33
2023-02-01T18:56:20.145Z,1.00
2023-02-01T18:58:47.268Z,1.20
2023-02-01T19:01:17.097Z,1.15
2023-02-01T19:03:48.150Z,1.58
2023-02-01T19:06:18.634Z,1.87
2023-02-01T19:08:46.889Z,1.60
2023-02-01T19:11:14.402Z,1.20
2023-02-01T19:13:41.582Z,1.35
2023-02-01T19:16:10.632Z,1.12
2023-02-01T19:18:38.274Z,1.25
2023-02-01T19:21:08.034Z,1.45
2023-02-01T19:23:35.824Z,1.60
2023-02-01T19:26:03.058Z,1.20
2023-02-01T19:28:30.187Z,1.10
2023-02-01T19:31:05.399Z,1.58
2023-02-01T19:33:32.972Z,1.05
2023-02-01T19:36:05.246Z,1.65
2023-02-01T19:38:33.618Z,1.30
2023-02-01T19:41:01.315Z,1.55
2023-02-01T19:43:28.693Z,1.15
2023-02-01T19:45:57.403Z,1.23
2023-02-01T19:48:24.887Z,1.45
2023-02-01T19:50:55.565Z,1.62
2023-02-01T19:53:25.825Z,1.42
2023-02-01T19:55:57.745Z,1.80
2023-02-01T19:58:25.783Z,1.48
2023-02-01T20:00:56.606Z,1.70
2023-02-01T20:03:24.499Z,1.90
2023-02-01T20:05:53.043Z,1.90
2023-02-01T20:08:20.849Z,1.83
2023-02-01T20:10:48.244Z,1.98
2023-02-01T20:13:15.525Z,1.73
2023-02-01T20:15:42.853Z,1.50
2023-02-01T20:18:10.683Z,2.08
2023-02-01T20:20:38.337Z,1.77
2023-02-01T20:23:06.421Z,1.60
2023-02-01T20:25:36.560Z,2.08
2023-02-01T20:28:03.767Z,2.25
2023-02-01T20:30:32.315Z,2.20
2023-02-01T20:32:59.768Z,2.15
2023-02-01T20:35:27.100Z,1.67
2023-02-01T20:37:54.392Z,2.08
2023-02-01T20:40:21.812Z,2.45
2023-02-01T20:42:48.978Z,2.20
2023-02-01T20:45:16.267Z,1.62
2023-02-01T20:47:43.678Z,1.45
2023-02-01T20:50:11.676Z,1.85
2023-02-01T20:52:38.752Z,1.35
2023-02-01T20:55:06.942Z,1.30
2023-02-01T20:57:34.066Z,1.30
2023-02-01T21:00:01.180Z,1.75
2023-02-01T21:02:28.656Z,1.60
2023-02-01T21:04:55.746Z,1.37
2023-02-01T21:07:22.855Z,1.65
2023-02-01T21:09:50.347Z,1.30
2023-02-01T21:12:17.343Z,1.30
2023-02-01T21:14:44.388Z,1.60
2023-02-01T21:17:11.743Z,1.70
2023-02-01T21:19:44.578Z,1.10
2023-02-01T21:22:13.308Z,1.87
2023-02-01T21:24:43.307Z,1.73
2023-02-01T21:27:10.612Z,1.37
2023-02-01T21:29:38.258Z,2.03
2023-02-01T21:32:06.954Z,2.00
2023-02-01T21:34:34.851Z,2.03
2023-02-01T21:37:02.440Z,1.80
2023-02-01T21:39:29.555Z,1.85
2023-02-01T21:42:14.902Z,1.87
2023-02-01T21:44:42.766Z,2.05
2023-02-01T21:47:13.559Z,1.83
2023-02-01T21:49:40.566Z,1.30
2023-02-01T21:52:08.424Z,1.60
2023-02-01T21:54:35.668Z,1.85
2023-02-01T21:57:02.892Z,1.80
2023-02-01T21:59:30.227Z,2.25
2023-02-01T22:01:57.283Z,2.17
2023-02-01T22:04:24.654Z,2.20
2023-02-01T22:06:51.750Z,2.17
2023-02-01T22:09:21.138Z,2.40
2023-02-01T22:11:48.844Z,1.95
2023-02-01T22:14:16.162Z,2.28
2023-02-01T22:16:43.273Z,2.10
2023-02-01T22:19:12.488Z,2.17
2023-02-01T22:21:42.107Z,2.70
2023-02-01T22:24:10.810Z,2.60
2023-02-01T22:26:38.662Z,2.53
2023-02-01T22:29:06.424Z,2.25
2023-02-01T22:31:33.496Z,2.30
2023-02-01T22:34:01.087Z,2.20
2023-02-01T22:36:28.093Z,2.40
2023-02-01T22:38:55.090Z,2.15
2023-02-01T22:41:22.380Z,2.03
2023-02-01T22:43:49.384Z,2.10
2023-02-01T22:46:25.329Z,1.80
2023-02-01T22:48:52.944Z,2.08
2023-02-01T22:51:22.855Z,1.98
2023-02-01T22:53:57.068Z,2.22
2023-02-01T22:56:25.603Z,2.20
2023-02-01T22:59:03.530Z,1.80
2023-02-01T23:01:31.477Z,1.85
2023-02-01T23:04:04.083Z,2.10
2023-02-01T23:06:32.301Z,1.90
2023-02-01T23:09:01.795Z,2.00
2023-02-01T23:11:29.165Z,1.55
2023-02-01T23:13:56.699Z,1.80
2023-02-01T23:16:23.922Z,1.48
2023-02-01T23:18:51.072Z,1.62
2023-02-01T23:21:20.825Z,1.20
2023-02-01T23:23:53.136Z,1.00
2023-02-01T23:26:21.616Z,1.55
2023-02-01T23:28:50.736Z,0.95
2023-02-01T23:31:17.963Z,1.42
2023-02-01T23:33:45.880Z,1.05
2023-02-01T23:36:15.992Z,1.00
2023-02-01T23:38:46.475Z,1.33
2023-02-01T23:41:15.805Z,1.25
2023-02-01T23:43:58.438Z,0.90
2023-02-01T23:46:41.242Z,0.68
2023-02-01T23:49:09.052Z,1.05
2023-02-01T23:51:37.004Z,1.60
2023-02-01T23:54:04.278Z,1.12
2023-02-01T23:56:36.579Z,1.10
2023-02-01T23:59:06.364Z,1.30
